createdAt,value
2018-12-11T00:00:11.495Z,0.50
2018-12-11T00:01:10.725Z,0.50
2018-12-11T00:02:11.480Z,0.50
2018-12-11T00:03:10.709Z,0.60
2018-12-11T00:04:10.706Z,0.60
2018-12-11T00:05:10.690Z,0.40
2018-12-11T00:06:10.697Z,0.30
2018-12-11T00:07:10.678Z,0.30
2018-12-11T00:08:10.651Z,0.60
2018-12-11T00:09:10.650Z,0.50
2018-12-11T00:10:10.643Z,0.40
2018-12-11T00:11:10.645Z,0.40
2018-12-11T00:12:11.460Z,0.30
2018-12-11T00:13:11.464Z,0.40
2018-12-11T00:14:10.597Z,0.20
2018-12-11T00:15:10.584Z,0.50
2018-12-11T00:16:10.576Z,0.40
2018-12-11T00:17:10.558Z,0.70
2018-12-11T00:18:10.547Z,0.50
2018-12-11T00:19:10.565Z,0.40
2018-12-11T00:20:10.573Z,0.60
2018-12-11T00:21:10.536Z,0.50
2018-12-11T00:22:10.517Z,0.40
2018-12-11T00:23:10.499Z,0.40
2018-12-11T00:24:11.463Z,0.50
2018-12-11T00:25:10.506Z,0.70
2018-12-11T00:26:10.470Z,0.50
2018-12-11T00:27:10.454Z,0.50
2018-12-11T00:28:10.442Z,0.30
2018-12-11T00:29:10.434Z,0.50
2018-12-11T00:30:10.446Z,0.60
2018-12-11T00:31:10.404Z,0.40
2018-12-11T00:32:10.394Z,0.60
2018-12-11T00:33:10.379Z,0.50
2018-12-11T00:34:10.373Z,0.50
2018-12-11T00:35:10.393Z,0.50
2018-12-11T00:36:10.961Z,0.40
2018-12-11T00:37:10.363Z,0.30
2018-12-11T00:38:10.340Z,0.40
2018-12-11T00:39:10.960Z,0.60
2018-12-11T00:40:10.311Z,0.50
2018-12-11T00:41:10.298Z,0.30
2018-12-11T00:42:10.317Z,0.40
2018-12-11T00:43:10.296Z,0.50
2018-12-11T00:44:10.981Z,0.60
2018-12-11T00:45:10.498Z,0.60
2018-12-11T00:46:10.244Z,0.40
2018-12-11T00:47:10.981Z,0.50
2018-12-11T00:48:10.223Z,0.30
2018-12-11T00:49:10.969Z,0.40
2018-12-11T00:50:10.213Z,0.60
2018-12-11T00:51:10.213Z,0.50
2018-12-11T00:52:10.204Z,0.50
2018-12-11T00:53:10.166Z,0.40
2018-12-11T00:54:10.997Z,0.60
2018-12-11T00:55:10.161Z,0.40
2018-12-11T00:56:10.142Z,0.70
2018-12-11T00:57:10.200Z,0.40
2018-12-11T00:58:10.985Z,0.40
2018-12-11T00:59:10.116Z,0.40
2018-12-11T01:00:10.171Z,0.60
2018-12-11T01:01:10.998Z,0.50
2018-12-11T01:02:10.070Z,0.50
2018-12-11T01:03:10.063Z,0.60
2018-12-11T01:04:10.047Z,0.50
2018-12-11T01:05:10.049Z,0.60
2018-12-11T01:06:10.027Z,0.40
2018-12-11T01:07:10.016Z,0.40
2018-12-11T01:08:10.000Z,0.60
2018-12-11T01:09:10.002Z,0.40
2018-12-11T01:10:10.053Z,0.60
2018-12-11T01:11:09.988Z,0.50
2018-12-11T01:12:10.465Z,0.40
2018-12-11T01:13:09.961Z,0.40
2018-12-11T01:14:09.945Z,0.40
2018-12-11T01:15:09.988Z,0.40
2018-12-11T01:16:09.929Z,0.50
2018-12-11T01:17:09.922Z,0.60
2018-12-11T01:18:09.902Z,0.60
2018-12-11T01:19:09.888Z,0.40
2018-12-11T01:20:09.897Z,0.40
2018-12-11T01:21:10.466Z,0.50
2018-12-11T01:22:09.856Z,0.40
2018-12-11T01:23:09.840Z,0.50
2018-12-11T01:24:09.856Z,0.50
2018-12-11T01:25:09.865Z,0.40
2018-12-11T01:26:09.827Z,0.40
2018-12-11T01:27:10.468Z,0.30
2018-12-11T01:28:09.804Z,0.60
2018-12-11T01:29:09.781Z,0.50
2018-12-11T01:30:09.976Z,0.50
2018-12-11T01:31:09.767Z,0.50
2018-12-11T01:32:09.743Z,0.50
2018-12-11T01:33:09.746Z,0.40
2018-12-11T01:34:09.752Z,0.60
2018-12-11T01:35:09.748Z,0.60
2018-12-11T01:36:09.698Z,0.40
2018-12-11T01:37:09.694Z,0.70
2018-12-11T01:38:09.687Z,0.40
2018-12-11T01:39:09.675Z,0.40
2018-12-11T01:40:09.717Z,0.60
2018-12-11T01:41:09.650Z,0.60
2018-12-11T01:42:09.634Z,0.40
2018-12-11T01:43:10.469Z,0.50
2018-12-11T01:44:09.616Z,0.50
2018-12-11T01:45:09.639Z,0.40
2018-12-11T01:46:10.524Z,0.50
2018-12-11T01:47:10.468Z,0.50
2018-12-11T01:48:09.571Z,0.30
2018-12-11T01:49:09.563Z,0.50
2018-12-11T01:50:10.004Z,0.50
2018-12-11T01:51:09.544Z,0.40
2018-12-11T01:52:10.477Z,0.50
2018-12-11T01:53:09.520Z,0.60
2018-12-11T01:54:09.505Z,0.40
2018-12-11T01:55:09.503Z,0.60
2018-12-11T01:56:09.488Z,0.40
2018-12-11T01:57:09.478Z,0.40
2018-12-11T01:58:09.476Z,0.50
2018-12-11T01:59:09.473Z,0.50
2018-12-11T02:00:09.491Z,0.90
2018-12-11T02:01:09.449Z,0.50
2018-12-11T02:02:09.420Z,0.70
2018-12-11T02:03:09.492Z,0.60
2018-12-11T02:04:09.964Z,0.70
2018-12-11T02:05:09.409Z,0.70
2018-12-11T02:06:09.374Z,0.50
2018-12-11T02:07:09.367Z,0.50
2018-12-11T02:08:09.379Z,0.50
2018-12-11T02:09:09.344Z,0.40
2018-12-11T02:10:09.347Z,0.30
2018-12-11T02:11:09.970Z,0.50
2018-12-11T02:12:09.312Z,0.60
2018-12-11T02:13:09.999Z,0.60
2018-12-11T02:14:09.292Z,0.50
2018-12-11T02:15:09.278Z,0.50
2018-12-11T02:16:09.276Z,0.50
2018-12-11T02:17:09.258Z,0.60
2018-12-11T02:18:09.259Z,0.50
2018-12-11T02:19:09.240Z,0.40
2018-12-11T02:20:09.225Z,0.50
2018-12-11T02:21:09.240Z,0.50
2018-12-11T02:22:09.218Z,0.50
2018-12-11T02:23:09.214Z,0.60
2018-12-11T02:24:09.200Z,0.70
2018-12-11T02:25:09.201Z,0.60
2018-12-11T02:26:13.002Z,0.60
2018-12-11T02:27:09.198Z,0.50
2018-12-11T02:28:10.021Z,0.50
2018-12-11T02:29:09.130Z,0.60
2018-12-11T02:30:10.016Z,0.50
2018-12-11T02:31:09.186Z,0.60
2018-12-11T02:32:09.108Z,0.60
2018-12-11T02:33:09.120Z,0.50
2018-12-11T02:34:09.077Z,0.40
2018-12-11T02:35:09.087Z,0.40
2018-12-11T02:36:09.116Z,0.50
2018-12-11T02:37:09.059Z,0.40
2018-12-11T02:38:09.062Z,0.50
2018-12-11T02:39:09.032Z,0.60
2018-12-11T02:40:09.055Z,0.40
2018-12-11T02:41:09.618Z,0.50
2018-12-11T02:42:08.989Z,0.60
2018-12-11T02:43:08.994Z,0.40
2018-12-11T02:44:08.995Z,0.50
2018-12-11T02:45:08.962Z,0.50
2018-12-11T02:46:08.967Z,0.40
2018-12-11T02:47:08.941Z,0.30
2018-12-11T02:48:08.945Z,0.60
2018-12-11T02:49:08.919Z,0.50
2018-12-11T02:50:08.927Z,0.70
2018-12-11T02:51:08.910Z,0.50
2018-12-11T02:52:09.019Z,0.50
2018-12-11T02:53:08.873Z,0.50
2018-12-11T02:54:08.872Z,0.50
2018-12-11T02:55:09.475Z,0.50
2018-12-11T02:56:08.849Z,0.50
2018-12-11T02:57:08.888Z,0.50
2018-12-11T02:58:08.828Z,0.60
2018-12-11T02:59:08.815Z,0.40
2018-12-11T03:00:08.806Z,0.50
2018-12-11T03:01:08.784Z,0.60
2018-12-11T03:02:08.990Z,0.60
2018-12-11T03:03:08.775Z,0.70
2018-12-11T03:04:08.752Z,0.70
2018-12-11T03:05:08.754Z,0.40
2018-12-11T03:06:08.728Z,0.40
2018-12-11T03:07:08.742Z,0.40
2018-12-11T03:08:08.729Z,0.60
2018-12-11T03:09:08.698Z,0.50
2018-12-11T03:10:08.694Z,0.70
2018-12-11T03:11:08.673Z,0.40
2018-12-11T03:12:08.998Z,0.50
2018-12-11T03:13:08.692Z,0.80
2018-12-11T03:14:08.642Z,0.40
2018-12-11T03:15:08.633Z,0.40
2018-12-11T03:16:08.622Z,0.40
2018-12-11T03:17:08.988Z,0.50
2018-12-11T03:18:08.610Z,0.60
2018-12-11T03:19:09.502Z,0.70
2018-12-11T03:20:08.605Z,0.60
2018-12-11T03:21:09.485Z,0.50
2018-12-11T03:22:08.563Z,0.50
2018-12-11T03:23:08.579Z,0.30
2018-12-11T03:24:08.531Z,0.50
2018-12-11T03:25:09.475Z,0.50
2018-12-11T03:26:08.512Z,0.30
2018-12-11T03:27:08.507Z,0.60
2018-12-11T03:28:08.507Z,0.50
2018-12-11T03:29:08.538Z,0.50
2018-12-11T03:30:08.993Z,0.40
2018-12-11T03:31:08.460Z,0.40
2018-12-11T03:32:08.520Z,0.60
2018-12-11T03:33:08.440Z,0.50
2018-12-11T03:34:08.444Z,0.50
2018-12-11T03:35:08.995Z,0.40
2018-12-11T03:36:09.050Z,0.50
2018-12-11T03:37:08.450Z,0.40
2018-12-11T03:38:08.380Z,0.50
2018-12-11T03:39:08.392Z,0.50
2018-12-11T03:40:08.973Z,0.50
2018-12-11T03:41:08.359Z,0.50
2018-12-11T03:42:08.354Z,0.40
2018-12-11T03:43:08.330Z,0.40
2018-12-11T03:44:08.338Z,0.50
2018-12-11T03:45:08.320Z,0.40
2018-12-11T03:46:08.305Z,0.50
2018-12-11T03:47:08.345Z,0.50
2018-12-11T03:48:08.365Z,0.30
2018-12-11T03:49:08.289Z,0.40
2018-12-11T03:50:08.261Z,0.40
2018-12-11T03:51:08.254Z,0.40
2018-12-11T03:52:08.236Z,0.40
2018-12-11T03:53:08.261Z,0.60
2018-12-11T03:54:08.226Z,0.40
2018-12-11T03:55:08.223Z,0.40
2018-12-11T03:56:08.986Z,0.30
2018-12-11T03:57:08.176Z,0.60
2018-12-11T03:58:08.189Z,0.60
2018-12-11T03:59:08.235Z,0.30
2018-12-11T04:00:08.176Z,0.60
2018-12-11T04:01:08.132Z,0.50
2018-12-11T04:02:08.119Z,0.40
2018-12-11T04:03:08.126Z,0.40
2018-12-11T04:04:08.134Z,0.40
2018-12-11T04:05:08.979Z,0.40
2018-12-11T04:06:08.128Z,0.60
2018-12-11T04:07:08.072Z,0.30
2018-12-11T04:08:08.121Z,0.40
2018-12-11T04:09:08.063Z,0.40
2018-12-11T04:10:08.979Z,0.40
2018-12-11T04:11:08.032Z,0.50
2018-12-11T04:12:08.037Z,0.40
2018-12-11T04:13:08.504Z,0.50
2018-12-11T04:14:08.023Z,0.40
2018-12-11T04:15:09.004Z,0.40
2018-12-11T04:16:08.485Z,0.40
2018-12-11T04:17:07.962Z,0.40
2018-12-11T04:18:07.964Z,0.40
2018-12-11T04:19:08.519Z,0.40
2018-12-11T04:20:07.930Z,0.40
2018-12-11T04:21:08.479Z,0.50
2018-12-11T04:22:07.951Z,0.60
2018-12-11T04:23:07.955Z,0.30
2018-12-11T04:24:07.892Z,0.70
2018-12-11T04:25:07.889Z,0.40
2018-12-11T04:26:07.883Z,0.40
2018-12-11T04:27:08.491Z,0.40
2018-12-11T04:28:07.876Z,0.50
2018-12-11T04:29:07.854Z,0.60
2018-12-11T04:30:07.823Z,0.50
2018-12-11T04:31:07.821Z,0.50
2018-12-11T04:32:07.826Z,0.30
2018-12-11T04:33:07.840Z,0.60
2018-12-11T04:34:07.799Z,0.50
2018-12-11T04:35:07.763Z,0.60
2018-12-11T04:36:07.777Z,0.30
2018-12-11T04:37:07.756Z,0.40
2018-12-11T04:38:08.491Z,0.30
2018-12-11T04:39:08.006Z,0.30
2018-12-11T04:40:07.724Z,0.30
2018-12-11T04:41:07.708Z,0.40
2018-12-11T04:42:07.690Z,0.50
2018-12-11T04:43:07.677Z,0.40
2018-12-11T04:44:07.729Z,0.40
2018-12-11T04:45:07.677Z,0.30
2018-12-11T04:46:08.509Z,0.30
2018-12-11T04:47:07.645Z,0.30
2018-12-11T04:48:07.623Z,0.30
2018-12-11T04:49:07.677Z,0.40
2018-12-11T04:50:07.610Z,0.30
2018-12-11T04:51:07.600Z,0.40
2018-12-11T04:52:07.606Z,0.30
2018-12-11T04:53:07.567Z,0.30
2018-12-11T04:54:07.594Z,0.30
2018-12-11T04:55:07.563Z,0.30
2018-12-11T04:56:07.537Z,0.40
2018-12-11T04:57:08.482Z,0.40
2018-12-11T04:58:07.512Z,0.30
2018-12-11T04:59:07.527Z,0.40
2018-12-11T05:00:07.496Z,0.30
2018-12-11T05:01:08.005Z,0.30
2018-12-11T05:02:07.982Z,0.50
2018-12-11T05:03:07.460Z,0.40
2018-12-11T05:04:07.552Z,0.30
2018-12-11T05:05:07.977Z,0.40
2018-12-11T05:06:07.436Z,0.40
2018-12-11T05:07:07.977Z,0.50
2018-12-11T05:08:07.461Z,0.40
2018-12-11T05:09:07.541Z,0.40
2018-12-11T05:10:07.436Z,0.40
2018-12-11T05:11:07.395Z,0.40
2018-12-11T05:12:07.365Z,0.40
2018-12-11T05:13:07.985Z,0.30
2018-12-11T05:14:07.386Z,0.40
2018-12-11T05:15:07.329Z,0.70
2018-12-11T05:16:08.006Z,0.40
2018-12-11T05:17:07.332Z,0.50
2018-12-11T05:18:07.306Z,0.40
2018-12-11T05:19:07.523Z,0.40
2018-12-11T05:20:07.282Z,0.30
2018-12-11T05:21:07.262Z,0.40
2018-12-11T05:22:07.250Z,0.50
2018-12-11T05:23:07.273Z,0.30
2018-12-11T05:24:07.249Z,0.40
2018-12-11T05:25:07.242Z,0.30
2018-12-11T05:26:07.211Z,0.40
2018-12-11T05:27:07.195Z,0.40
2018-12-11T05:28:07.985Z,0.40
2018-12-11T05:29:07.198Z,0.50
2018-12-11T05:30:07.538Z,0.50
2018-12-11T05:31:07.993Z,0.70
2018-12-11T05:32:07.146Z,0.20
2018-12-11T05:33:07.146Z,0.50
2018-12-11T05:34:07.119Z,0.70
2018-12-11T05:35:07.507Z,0.30
2018-12-11T05:36:07.138Z,0.40
2018-12-11T05:37:07.104Z,0.40
2018-12-11T05:38:07.084Z,0.50
2018-12-11T05:39:07.087Z,0.20
2018-12-11T05:40:07.064Z,0.40
2018-12-11T05:41:07.044Z,0.40
2018-12-11T05:42:07.982Z,0.30
2018-12-11T05:43:07.042Z,0.50
2018-12-11T05:44:07.025Z,0.30
2018-12-11T05:45:07.011Z,0.30
2018-12-11T05:46:06.995Z,0.30
2018-12-11T05:47:07.017Z,0.40
2018-12-11T05:48:06.985Z,0.40
2018-12-11T05:49:06.956Z,0.30
2018-12-11T05:50:07.008Z,0.60
2018-12-11T05:51:06.941Z,0.50
2018-12-11T05:52:07.557Z,0.30
2018-12-11T05:53:06.926Z,0.30
2018-12-11T05:54:06.905Z,0.50
2018-12-11T05:55:07.006Z,0.40
2018-12-11T05:56:06.887Z,0.40
2018-12-11T05:57:06.879Z,0.30
2018-12-11T05:58:06.882Z,0.40
2018-12-11T05:59:06.867Z,0.40
2018-12-11T06:00:06.873Z,0.30
2018-12-11T06:01:06.823Z,0.40
2018-12-11T06:02:06.818Z,0.40
2018-12-11T06:03:06.802Z,0.30
2018-12-11T06:04:06.815Z,0.50
2018-12-11T06:05:06.812Z,0.20
2018-12-11T06:06:06.769Z,0.30
2018-12-11T06:07:06.778Z,0.50
2018-12-11T06:08:07.509Z,0.30
2018-12-11T06:09:06.735Z,0.30
2018-12-11T06:10:06.995Z,0.50
2018-12-11T06:11:06.728Z,0.30
2018-12-11T06:12:06.713Z,0.30
2018-12-11T06:13:06.693Z,0.50
2018-12-11T06:14:07.484Z,0.30
2018-12-11T06:15:06.713Z,0.30
2018-12-11T06:16:06.664Z,0.20
2018-12-11T06:17:07.500Z,0.30
2018-12-11T06:18:06.637Z,0.30
2018-12-11T06:19:06.626Z,0.30
2018-12-11T06:20:07.022Z,0.30
2018-12-11T06:21:06.609Z,0.30
2018-12-11T06:22:06.607Z,0.30
2018-12-11T06:23:06.583Z,0.30
2018-12-11T06:24:06.597Z,0.40
2018-12-11T06:25:06.581Z,0.20
2018-12-11T06:26:06.554Z,0.40
2018-12-11T06:27:07.489Z,0.30
2018-12-11T06:28:06.537Z,0.30
2018-12-11T06:29:06.533Z,0.40
2018-12-11T06:30:06.568Z,0.30
2018-12-11T06:31:06.492Z,0.30
2018-12-11T06:32:07.006Z,0.40
2018-12-11T06:33:06.475Z,0.40
2018-12-11T06:34:06.489Z,0.40
2018-12-11T06:35:06.471Z,0.40
2018-12-11T06:36:06.438Z,0.40
2018-12-11T06:37:07.000Z,0.30
2018-12-11T06:38:06.989Z,0.30
2018-12-11T06:39:07.004Z,0.40
2018-12-11T06:40:06.412Z,0.30
2018-12-11T06:41:06.384Z,0.30
2018-12-11T06:42:06.372Z,0.30
2018-12-11T06:43:06.984Z,0.30
2018-12-11T06:44:06.389Z,0.30
2018-12-11T06:45:06.388Z,0.20
2018-12-11T06:46:06.333Z,0.20
2018-12-11T06:47:06.316Z,0.40
2018-12-11T06:48:07.023Z,0.20
2018-12-11T06:49:06.298Z,0.50
2018-12-11T06:50:06.320Z,0.40
2018-12-11T06:51:06.986Z,0.20
2018-12-11T06:52:06.290Z,0.30
2018-12-11T06:53:06.987Z,0.30
2018-12-11T06:54:06.991Z,0.50
2018-12-11T06:55:06.249Z,0.40
2018-12-11T06:56:06.228Z,0.30
2018-12-11T06:57:06.204Z,0.30
2018-12-11T06:58:06.195Z,0.20
2018-12-11T06:59:06.187Z,0.20
2018-12-11T07:00:06.216Z,0.30
2018-12-11T07:01:06.165Z,0.40
2018-12-11T07:02:06.996Z,0.30
2018-12-11T07:03:06.135Z,0.20
2018-12-11T07:04:06.126Z,0.30
2018-12-11T07:05:06.122Z,0.30
2018-12-11T07:06:06.984Z,0.30
2018-12-11T07:07:06.112Z,0.20
2018-12-11T07:08:06.087Z,0.30
2018-12-11T07:09:06.082Z,0.30
2018-12-11T07:10:06.498Z,0.20
2018-12-11T07:11:06.052Z,0.30
2018-12-11T07:12:06.997Z,0.30
2018-12-11T07:13:06.036Z,0.20
2018-12-11T07:14:06.027Z,0.40
2018-12-11T07:15:06.007Z,0.30
2018-12-11T07:16:06.028Z,0.30
2018-12-11T07:17:06.010Z,0.30
2018-12-11T07:18:05.976Z,0.30
2018-12-11T07:19:05.969Z,0.30
2018-12-11T07:20:05.951Z,0.40
2018-12-11T07:21:06.011Z,0.30
2018-12-11T07:22:05.929Z,0.30
2018-12-11T07:23:05.926Z,0.40
2018-12-11T07:24:06.483Z,0.40
2018-12-11T07:25:05.896Z,0.20
2018-12-11T07:26:05.906Z,0.40
2018-12-11T07:27:05.879Z,0.40
2018-12-11T07:28:06.482Z,0.40
2018-12-11T07:29:05.859Z,0.30
2018-12-11T07:30:05.850Z,0.30
2018-12-11T07:31:05.870Z,0.20
2018-12-11T07:32:05.827Z,0.30
2018-12-11T07:33:05.853Z,0.30
2018-12-11T07:34:05.800Z,0.50
2018-12-11T07:35:05.788Z,0.40
2018-12-11T07:36:05.786Z,0.30
2018-12-11T07:37:06.502Z,0.30
2018-12-11T07:38:06.483Z,0.40
2018-12-11T07:39:05.748Z,0.20
2018-12-11T07:40:05.734Z,0.30
2018-12-11T07:41:05.734Z,0.30
2018-12-11T07:42:06.496Z,0.20
2018-12-11T07:43:06.487Z,0.20
2018-12-11T07:44:05.688Z,0.30
2018-12-11T07:45:05.693Z,0.30
2018-12-11T07:46:07.311Z,0.30
2018-12-11T07:47:05.654Z,0.20
2018-12-11T07:48:05.657Z,0.30
2018-12-11T07:49:05.637Z,0.30
2018-12-11T07:50:05.649Z,0.30
2018-12-11T07:51:05.627Z,0.40
2018-12-11T07:52:05.632Z,0.30
2018-12-11T07:53:06.448Z,0.50
2018-12-11T07:54:05.602Z,0.30
2018-12-11T07:55:05.574Z,0.20
2018-12-11T07:56:06.016Z,0.20
2018-12-11T07:57:05.573Z,0.30
2018-12-11T07:58:06.611Z,0.30
2018-12-11T07:59:05.575Z,0.30
2018-12-11T08:00:05.518Z,0.20
2018-12-11T08:01:05.999Z,0.30
2018-12-11T08:02:05.495Z,0.50
2018-12-11T08:03:05.993Z,0.40
2018-12-11T08:04:06.013Z,0.40
2018-12-11T08:05:05.996Z,0.40
2018-12-11T08:06:05.505Z,0.20
2018-12-11T08:07:05.474Z,0.30
2018-12-11T08:08:05.438Z,0.40
2018-12-11T08:09:06.040Z,0.30
2018-12-11T08:10:05.991Z,0.30
2018-12-11T08:11:05.402Z,0.40
2018-12-11T08:12:08.254Z,0.30
2018-12-11T08:13:05.375Z,0.40
2018-12-11T08:14:05.986Z,0.40
2018-12-11T08:15:06.095Z,0.30
2018-12-11T08:16:05.993Z,0.50
2018-12-11T08:17:05.525Z,0.30
2018-12-11T08:18:05.326Z,0.70
2018-12-11T08:19:05.319Z,0.80
2018-12-11T08:20:05.299Z,0.60
2018-12-11T08:21:05.319Z,0.80
2018-12-11T08:22:05.318Z,0.40
2018-12-11T08:23:05.372Z,0.50
2018-12-11T08:24:06.013Z,0.50
2018-12-11T08:25:05.263Z,0.40
2018-12-11T08:26:06.002Z,0.70
2018-12-11T08:27:05.253Z,0.40
2018-12-11T08:28:05.232Z,0.60
2018-12-11T08:29:06.022Z,0.60
2018-12-11T08:30:05.991Z,0.60
2018-12-11T08:31:05.192Z,0.70
2018-12-11T08:32:05.510Z,0.60
2018-12-11T08:33:05.158Z,0.60
2018-12-11T08:34:05.195Z,0.40
2018-12-11T08:35:05.171Z,0.60
2018-12-11T08:36:06.006Z,0.40
2018-12-11T08:37:05.125Z,0.40
2018-12-11T08:38:05.255Z,0.40
2018-12-11T08:39:05.991Z,0.50
2018-12-11T08:40:05.126Z,0.50
2018-12-11T08:41:05.074Z,0.50
2018-12-11T08:42:05.071Z,0.60
2018-12-11T08:43:05.987Z,0.50
2018-12-11T08:44:05.046Z,0.80
2018-12-11T08:45:05.997Z,0.50
2018-12-11T08:46:06.070Z,0.50
2018-12-11T08:47:05.512Z,0.50
2018-12-11T08:48:05.995Z,0.40
2018-12-11T08:49:04.990Z,0.70
2018-12-11T08:50:05.011Z,0.40
2018-12-11T08:51:04.965Z,0.60
2018-12-11T08:52:05.534Z,0.40
2018-12-11T08:53:04.945Z,0.60
2018-12-11T08:54:05.066Z,0.70
2018-12-11T08:55:04.920Z,0.60
2018-12-11T08:56:05.143Z,0.60
2018-12-11T08:57:05.019Z,0.50
2018-12-11T08:58:04.888Z,0.70
2018-12-11T08:59:06.704Z,0.50
2018-12-11T09:00:04.865Z,0.50
2018-12-11T09:01:05.514Z,1.40
2018-12-11T09:02:04.887Z,0.60
2018-12-11T09:03:04.858Z,0.50
2018-12-11T09:04:04.838Z,0.60
2018-12-11T09:05:04.817Z,0.90
2018-12-11T09:06:05.535Z,0.50
2018-12-11T09:07:04.808Z,1.00
2018-12-11T09:08:04.791Z,0.80
2018-12-11T09:09:04.769Z,0.50
2018-12-11T09:10:04.807Z,1.30
2018-12-11T09:11:04.760Z,0.50
2018-12-11T09:12:05.556Z,0.80
2018-12-11T09:13:04.739Z,0.70
2018-12-11T09:14:05.501Z,0.80
2018-12-11T09:15:05.504Z,0.60
2018-12-11T09:16:04.718Z,0.60
2018-12-11T09:17:10.084Z,0.70
2018-12-11T09:18:04.727Z,0.50
2018-12-11T09:19:04.676Z,0.60
2018-12-11T09:20:04.765Z,0.80
2018-12-11T09:21:05.618Z,0.50
2018-12-11T09:22:04.637Z,0.80
2018-12-11T09:23:05.500Z,1.00
2018-12-11T09:24:05.640Z,1.10
2018-12-11T09:25:04.596Z,0.90
2018-12-11T09:26:05.625Z,1.00
2018-12-11T09:27:04.593Z,0.80
2018-12-11T09:28:10.802Z,0.70
2018-12-11T09:29:04.650Z,1.10
2018-12-11T09:30:04.567Z,0.60
2018-12-11T09:31:04.532Z,0.70
2018-12-11T09:32:05.023Z,0.70
2018-12-11T09:33:04.522Z,1.10
2018-12-11T09:34:05.693Z,0.90
2018-12-11T09:35:04.499Z,1.50
2018-12-11T09:36:05.072Z,0.70
2018-12-11T09:37:05.051Z,0.90
2018-12-11T09:38:04.457Z,0.70
2018-12-11T09:39:04.998Z,0.60
2018-12-11T09:40:05.015Z,0.90
2018-12-11T09:41:04.416Z,0.70
2018-12-11T09:42:07.266Z,0.80
2018-12-11T09:43:04.414Z,0.70
2018-12-11T09:44:04.996Z,0.50
2018-12-11T09:45:04.997Z,0.60
2018-12-11T09:46:05.017Z,0.60
2018-12-11T09:47:04.366Z,1.00
2018-12-11T09:48:05.114Z,0.60
2018-12-11T09:49:04.328Z,0.60
2018-12-11T09:50:04.322Z,0.80
2018-12-11T09:51:05.005Z,0.70
2018-12-11T09:52:05.022Z,1.00
2018-12-11T09:53:04.288Z,0.80
2018-12-11T09:54:04.278Z,0.60
2018-12-11T09:55:04.264Z,0.80
2018-12-11T09:56:04.261Z,0.90
2018-12-11T09:57:04.241Z,0.90
2018-12-11T09:58:04.239Z,0.70
2018-12-11T09:59:04.222Z,0.90
2018-12-11T10:00:04.991Z,0.80
2018-12-11T10:01:04.200Z,0.70
2018-12-11T10:02:04.186Z,0.90
2018-12-11T10:03:04.513Z,0.90
2018-12-11T10:04:05.040Z,1.00
2018-12-11T10:05:04.157Z,0.70
2018-12-11T10:06:04.155Z,0.90
2018-12-11T10:07:05.007Z,1.00
2018-12-11T10:08:05.037Z,1.10
2018-12-11T10:09:04.993Z,1.00
2018-12-11T10:10:04.106Z,1.10
2018-12-11T10:11:04.139Z,0.90
2018-12-11T10:12:04.079Z,1.10
2018-12-11T10:13:04.571Z,1.30
2018-12-11T10:14:04.086Z,1.00
2018-12-11T10:15:04.054Z,1.10
2018-12-11T10:16:04.041Z,1.10
2018-12-11T10:17:04.091Z,1.00
2018-12-11T10:18:04.020Z,1.10
2018-12-11T10:19:04.007Z,0.90
2018-12-11T10:20:05.494Z,1.30
2018-12-11T10:21:03.985Z,1.00
2018-12-11T10:22:04.506Z,1.40
2018-12-11T10:23:04.528Z,0.80
2018-12-11T10:24:04.505Z,1.00
2018-12-11T10:25:03.948Z,1.10
2018-12-11T10:26:03.932Z,1.00
2018-12-11T10:27:03.917Z,1.20
2018-12-11T10:28:04.056Z,0.90
2018-12-11T10:29:03.998Z,1.20
2018-12-11T10:30:04.505Z,1.10
2018-12-11T10:31:03.870Z,1.00
2018-12-11T10:32:04.055Z,1.00
2018-12-11T10:33:04.052Z,1.10
2018-12-11T10:34:03.903Z,1.10
2018-12-11T10:35:04.538Z,1.00
2018-12-11T10:36:03.825Z,1.10
2018-12-11T10:37:03.812Z,1.40
2018-12-11T10:38:04.077Z,1.20
2018-12-11T10:39:03.787Z,1.20
2018-12-11T10:40:03.777Z,1.00
2018-12-11T10:41:03.773Z,1.20
2018-12-11T10:42:04.499Z,1.20
2018-12-11T10:43:03.857Z,1.20
2018-12-11T10:44:03.743Z,1.60
2018-12-11T10:45:04.516Z,1.60
2018-12-11T10:46:03.732Z,0.90
2018-12-11T10:47:04.510Z,1.60
2018-12-11T10:48:04.005Z,1.60
2018-12-11T10:49:04.498Z,1.80
2018-12-11T10:50:03.683Z,1.70
2018-12-11T10:51:03.677Z,1.80
2018-12-11T10:52:03.668Z,2.40
2018-12-11T10:53:04.014Z,2.10
2018-12-11T10:54:04.506Z,2.60
2018-12-11T10:55:04.493Z,2.10
2018-12-11T10:56:03.613Z,1.10
2018-12-11T10:57:03.596Z,1.40
2018-12-11T10:58:03.613Z,2.10
2018-12-11T10:59:04.519Z,1.80
2018-12-11T11:00:04.527Z,1.70
2018-12-11T11:01:03.545Z,1.90
2018-12-11T11:02:03.579Z,2.00
2018-12-11T11:03:04.013Z,2.40
2018-12-11T11:04:03.538Z,2.10
2018-12-11T11:05:03.512Z,2.00
2018-12-11T11:06:03.810Z,2.00
2018-12-11T11:07:03.491Z,1.80
2018-12-11T11:08:03.477Z,1.70
2018-12-11T11:09:04.000Z,1.70
2018-12-11T11:10:03.482Z,1.70
2018-12-11T11:11:04.132Z,3.30
2018-12-11T11:12:03.999Z,2.40
2018-12-11T11:13:03.589Z,2.00
2018-12-11T11:14:03.416Z,1.80
2018-12-11T11:15:04.014Z,2.20
2018-12-11T11:16:04.001Z,1.80
2018-12-11T11:17:03.404Z,2.60
2018-12-11T11:18:03.517Z,2.00
2018-12-11T11:19:03.421Z,2.30
2018-12-11T11:20:03.357Z,2.20
2018-12-11T11:21:04.016Z,2.10
2018-12-11T11:22:03.338Z,2.10
2018-12-11T11:23:03.513Z,2.10
2018-12-11T11:24:04.015Z,1.80
2018-12-11T11:25:03.280Z,2.30
2018-12-11T11:26:03.286Z,1.90
2018-12-11T11:27:03.272Z,1.70
2018-12-11T11:28:03.267Z,2.30
2018-12-11T11:29:03.253Z,1.70
2018-12-11T11:30:03.261Z,2.40
2018-12-11T11:31:04.021Z,2.00
2018-12-11T11:32:03.221Z,1.60
2018-12-11T11:33:04.020Z,1.50
2018-12-11T11:34:03.193Z,1.70
2018-12-11T11:35:04.012Z,1.90
2018-12-11T11:36:04.028Z,1.80
2018-12-11T11:37:03.163Z,1.70
2018-12-11T11:38:03.150Z,1.80
2018-12-11T11:39:03.155Z,1.90
2018-12-11T11:40:04.001Z,1.40
2018-12-11T11:41:04.019Z,1.90
2018-12-11T11:42:04.011Z,1.60
2018-12-11T11:43:04.001Z,1.40
2018-12-11T11:44:03.091Z,1.50
2018-12-11T11:45:03.068Z,1.20
2018-12-11T11:46:03.057Z,1.90
2018-12-11T11:47:04.003Z,1.70
2018-12-11T11:48:03.998Z,1.30
2018-12-11T11:49:04.016Z,1.80
2018-12-11T11:50:03.998Z,1.30
2018-12-11T11:51:03.018Z,2.00
2018-12-11T11:52:03.498Z,1.80
2018-12-11T11:53:03.509Z,1.00
2018-12-11T11:54:02.974Z,1.70
2018-12-11T11:55:02.955Z,1.40
2018-12-11T11:56:02.963Z,1.60
2018-12-11T11:57:02.940Z,1.40
2018-12-11T11:58:03.530Z,1.70
2018-12-11T11:59:03.019Z,1.90
2018-12-11T12:00:03.513Z,1.30
2018-12-11T12:01:03.520Z,1.70
2018-12-11T12:02:02.878Z,1.60
2018-12-11T12:03:02.889Z,1.60
2018-12-11T12:04:02.874Z,1.60
2018-12-11T12:05:02.847Z,1.50
2018-12-11T12:06:03.568Z,1.40
2018-12-11T12:07:02.826Z,1.60
2018-12-11T12:08:02.825Z,1.50
2018-12-11T12:09:02.825Z,1.70
2018-12-11T12:10:03.503Z,1.40
2018-12-11T12:11:03.506Z,1.70
2018-12-11T12:12:03.499Z,1.40
2018-12-11T12:13:03.517Z,1.60
2018-12-11T12:14:03.023Z,1.70
2018-12-11T12:15:02.788Z,1.10
2018-12-11T12:16:02.737Z,1.00
2018-12-11T12:17:03.505Z,1.40
2018-12-11T12:18:02.709Z,1.50
2018-12-11T12:19:02.707Z,1.30
2018-12-11T12:20:03.509Z,1.40
2018-12-11T12:21:02.675Z,1.20
2018-12-11T12:22:03.507Z,1.40
2018-12-11T12:23:02.665Z,1.80
2018-12-11T12:24:02.663Z,1.60
2018-12-11T12:25:03.529Z,1.10
2018-12-11T12:26:02.621Z,1.70
2018-12-11T12:27:02.609Z,1.50
2018-12-11T12:28:02.608Z,1.40
2018-12-11T12:29:02.611Z,1.50
2018-12-11T12:30:03.530Z,1.70
2018-12-11T12:31:02.599Z,1.60
2018-12-11T12:32:02.605Z,1.40
2018-12-11T12:33:03.519Z,1.60
2018-12-11T12:34:03.049Z,1.30
2018-12-11T12:35:02.530Z,1.60
2018-12-11T12:36:03.538Z,1.40
2018-12-11T12:37:02.501Z,1.60
2018-12-11T12:38:03.084Z,1.50
2018-12-11T12:39:02.491Z,1.50
2018-12-11T12:40:02.468Z,1.60
2018-12-11T12:41:03.016Z,1.40
2018-12-11T12:42:02.456Z,1.70
2018-12-11T12:43:02.524Z,1.20
2018-12-11T12:44:03.051Z,1.60
2018-12-11T12:45:02.427Z,1.40
2018-12-11T12:46:03.121Z,1.30
2018-12-11T12:47:02.462Z,1.30
2018-12-11T12:48:02.379Z,1.60
2018-12-11T12:49:02.386Z,1.50
2018-12-11T12:50:02.371Z,1.30
2018-12-11T12:51:03.089Z,1.40
2018-12-11T12:52:02.350Z,1.40
2018-12-11T12:53:03.014Z,1.90
2018-12-11T12:54:03.015Z,1.40
2018-12-11T12:55:02.552Z,1.30
2018-12-11T12:56:02.347Z,1.50
2018-12-11T12:57:02.308Z,1.10
2018-12-11T12:58:02.273Z,1.60
2018-12-11T12:59:03.016Z,1.20
2018-12-11T13:00:02.528Z,1.50
2018-12-11T13:01:03.168Z,1.50
2018-12-11T13:02:02.226Z,1.60
2018-12-11T13:03:03.020Z,1.40
2018-12-11T13:04:03.014Z,1.60
2018-12-11T13:05:02.209Z,1.60
2018-12-11T13:06:02.183Z,1.50
2018-12-11T13:07:03.028Z,1.40
2018-12-11T13:08:02.170Z,1.30
2018-12-11T13:09:03.036Z,1.40
2018-12-11T13:10:02.153Z,1.20
2018-12-11T13:11:03.007Z,1.70
2018-12-11T13:12:02.169Z,1.40
2018-12-11T13:13:02.101Z,1.50
2018-12-11T13:14:03.132Z,1.40
2018-12-11T13:15:07.080Z,1.30
2018-12-11T13:16:03.111Z,1.00
2018-12-11T13:17:03.030Z,1.60
2018-12-11T13:18:03.007Z,1.80